createdAt,value
2016-12-13T00:00:20.355Z,1006.3
2016-12-13T00:00:40.873Z,1006.3
2016-12-13T00:01:01.419Z,1006.3
2016-12-13T00:01:21.938Z,1006.3
2016-12-13T00:01:42.478Z,1006.3
2016-12-13T00:02:03.009Z,1006.3
2016-12-13T00:02:23.558Z,1006.3
2016-12-13T00:02:44.113Z,1006.3
2016-12-13T00:03:04.686Z,1006.3
2016-12-13T00:03:25.236Z,1006.3
2016-12-13T00:03:45.774Z,1006.3
2016-12-13T00:04:06.327Z,1006.3
2016-12-13T00:04:26.882Z,1006.3
2016-12-13T00:04:47.418Z,1006.3
2016-12-13T00:05:07.985Z,1006.3
2016-12-13T00:05:28.518Z,1006.3
2016-12-13T00:05:49.056Z,1006.4
2016-12-13T00:06:09.568Z,1006.3
2016-12-13T00:06:30.126Z,1006.3
2016-12-13T00:06:50.660Z,1006.3
2016-12-13T00:07:11.232Z,1006.4
2016-12-13T00:07:31.799Z,1006.4
2016-12-13T00:07:52.353Z,1006.3
2016-12-13T00:08:12.879Z,1006.4
2016-12-13T00:08:33.420Z,1006.4
2016-12-13T00:08:53.992Z,1006.4
2016-12-13T00:09:14.533Z,1006.4
2016-12-13T00:09:35.069Z,1006.3
2016-12-13T00:09:55.635Z,1006.4
2016-12-13T00:10:16.168Z,1006.4
2016-12-13T00:10:36.701Z,1006.3
2016-12-13T00:10:57.241Z,1006.3
2016-12-13T00:11:17.763Z,1006.4
2016-12-13T00:11:38.276Z,1006.3
2016-12-13T00:11:58.819Z,1006.3
2016-12-13T00:12:19.355Z,1006.4
2016-12-13T00:12:39.907Z,1006.4
2016-12-13T00:13:00.456Z,1006.3
2016-12-13T00:13:21.012Z,1006.3
2016-12-13T00:13:41.571Z,1006.4
2016-12-13T00:14:02.120Z,1006.3
2016-12-13T00:14:22.675Z,1006.3
2016-12-13T00:14:43.220Z,1006.3
2016-12-13T00:15:03.762Z,1006.3
2016-12-13T00:15:24.300Z,1006.4
2016-12-13T00:15:44.856Z,1006.3
2016-12-13T00:16:05.387Z,1006.3
2016-12-13T00:16:25.913Z,1006.3
2016-12-13T00:16:46.494Z,1006.4
2016-12-13T00:17:07.061Z,1006.3
2016-12-13T00:17:27.594Z,1006.3
2016-12-13T00:17:48.127Z,1006.3
2016-12-13T00:18:08.672Z,1006.3
2016-12-13T00:18:29.214Z,1006.3
2016-12-13T00:18:49.739Z,1006.3
2016-12-13T00:19:10.258Z,1006.3
2016-12-13T00:19:30.791Z,1006.3
2016-12-13T00:19:51.320Z,1006.3
2016-12-13T00:20:11.850Z,1006.3
2016-12-13T00:20:32.414Z,1006.3
2016-12-13T00:20:52.980Z,1006.3
2016-12-13T00:21:13.519Z,1006.3
2016-12-13T00:21:34.056Z,1006.3
2016-12-13T00:21:54.580Z,1006.3
2016-12-13T00:22:15.137Z,1006.3
2016-12-13T00:22:35.685Z,1006.3
2016-12-13T00:22:56.220Z,1006.3
2016-12-13T00:23:16.750Z,1006.3
2016-12-13T00:23:37.312Z,1006.3
2016-12-13T00:23:57.863Z,1006.4
2016-12-13T00:24:18.409Z,1006.4
2016-12-13T00:24:38.976Z,1006.4
2016-12-13T00:24:59.521Z,1006.3
2016-12-13T00:25:20.069Z,1006.3
2016-12-13T00:25:40.601Z,1006.3
2016-12-13T00:26:01.121Z,1006.3
2016-12-13T00:26:21.655Z,1006.3
2016-12-13T00:26:42.198Z,1006.3
2016-12-13T00:27:02.766Z,1006.3
2016-12-13T00:27:23.311Z,1006.3
2016-12-13T00:27:43.854Z,1006.3
2016-12-13T00:28:04.413Z,1006.3
2016-12-13T00:28:24.958Z,1006.3
2016-12-13T00:28:45.497Z,1006.2
2016-12-13T00:29:06.023Z,1006.3
2016-12-13T00:29:26.564Z,1006.3
2016-12-13T00:29:47.105Z,1006.3
2016-12-13T00:30:07.665Z,1006.2
2016-12-13T00:30:28.199Z,1006.2
2016-12-13T00:30:48.734Z,1006.2
2016-12-13T00:31:09.281Z,1006.2
2016-12-13T00:31:29.806Z,1006.2
2016-12-13T00:31:50.349Z,1006.2
2016-12-13T00:32:10.875Z,1006.2
2016-12-13T00:32:31.407Z,1006.2
2016-12-13T00:32:51.952Z,1006.2
2016-12-13T00:33:12.496Z,1006.2
2016-12-13T00:33:33.028Z,1006.2
2016-12-13T00:33:53.559Z,1006.2
2016-12-13T00:34:14.080Z,1006.2
2016-12-13T00:34:34.611Z,1006.3
2016-12-13T00:34:55.161Z,1006.2
2016-12-13T00:35:15.691Z,1006.2
2016-12-13T00:35:36.237Z,1006.3
2016-12-13T00:35:56.782Z,1006.3
2016-12-13T00:36:17.314Z,1006.3
2016-12-13T00:36:37.845Z,1006.3
2016-12-13T00:36:58.390Z,1006.2
2016-12-13T00:37:18.910Z,1006.2
2016-12-13T00:37:39.443Z,1006.3
2016-12-13T00:37:59.981Z,1006.3
2016-12-13T00:38:20.539Z,1006.2
2016-12-13T00:38:41.073Z,1006.2
2016-12-13T00:39:01.665Z,1006.3
2016-12-13T00:39:22.213Z,1006.2
2016-12-13T00:39:42.741Z,1006.3
2016-12-13T00:40:03.268Z,1006.2
2016-12-13T00:40:23.800Z,1006.2
2016-12-13T00:40:44.374Z,1006.2
2016-12-13T00:41:04.955Z,1006.2
2016-12-13T00:41:25.479Z,1006.2
2016-12-13T00:41:46.016Z,1006.2
2016-12-13T00:42:06.537Z,1006.2
2016-12-13T00:42:27.060Z,1006.2
2016-12-13T00:42:47.605Z,1006.2
2016-12-13T00:43:08.179Z,1006.2
2016-12-13T00:43:28.697Z,1006.2
2016-12-13T00:43:49.249Z,1006.2
2016-12-13T00:44:09.818Z,1006.2
2016-12-13T00:44:30.359Z,1006.2
2016-12-13T00:44:50.872Z,1006.2
2016-12-13T00:45:11.405Z,1006.2
2016-12-13T00:45:31.922Z,1006.2
2016-12-13T00:45:52.459Z,1006.2
2016-12-13T00:46:13.023Z,1006.2
2016-12-13T00:46:33.548Z,1006.2
2016-12-13T00:46:54.084Z,1006.2
2016-12-13T00:47:14.601Z,1006.2
2016-12-13T00:47:35.151Z,1006.2
2016-12-13T00:47:55.724Z,1006.2
2016-12-13T00:48:16.261Z,1006.2
2016-12-13T00:48:36.836Z,1006.2
2016-12-13T00:48:57.369Z,1006.2
2016-12-13T00:49:17.907Z,1006.2
2016-12-13T00:49:38.433Z,1006.2
2016-12-13T00:49:58.998Z,1006.2
2016-12-13T00:50:19.526Z,1006.2
2016-12-13T00:50:40.045Z,1006.2
2016-12-13T00:51:00.581Z,1006.2
2016-12-13T00:51:21.120Z,1006.2
2016-12-13T00:51:41.658Z,1006.2
2016-12-13T00:52:02.192Z,1006.2
2016-12-13T00:52:22.724Z,1006.2
2016-12-13T00:52:43.264Z,1006.3
2016-12-13T00:53:03.807Z,1006.2
2016-12-13T00:53:24.365Z,1006.2
2016-12-13T00:53:44.931Z,1006.2
2016-12-13T00:54:05.453Z,1006.3
2016-12-13T00:54:25.980Z,1006.3
2016-12-13T00:54:46.508Z,1006.2
2016-12-13T00:55:07.081Z,1006.3
2016-12-13T00:55:27.614Z,1006.3
2016-12-13T00:55:48.157Z,1006.3
2016-12-13T00:56:08.686Z,1006.2
2016-12-13T00:56:29.214Z,1006.3
2016-12-13T00:56:49.769Z,1006.3
2016-12-13T00:57:10.331Z,1006.3
2016-12-13T00:57:30.877Z,1006.3
2016-12-13T00:57:51.411Z,1006.3
2016-12-13T00:58:11.947Z,1006.3
2016-12-13T00:58:32.491Z,1006.3
2016-12-13T00:58:53.038Z,1006.3
2016-12-13T00:59:13.581Z,1006.3
2016-12-13T00:59:34.104Z,1006.3
2016-12-13T00:59:54.666Z,1006.3
2016-12-13T01:00:15.185Z,1006.3
2016-12-13T01:00:35.727Z,1006.2
2016-12-13T01:00:56.280Z,1006.2
2016-12-13T01:01:16.828Z,1006.2
2016-12-13T01:01:37.377Z,1006.3
2016-12-13T01:01:57.911Z,1006.3
2016-12-13T01:02:18.453Z,1006.2
2016-12-13T01:02:38.994Z,1006.2
2016-12-13T01:02:59.563Z,1006.2
2016-12-13T01:03:20.114Z,1006.2
2016-12-13T01:03:40.649Z,1006.2
2016-12-13T01:04:01.203Z,1006.2
2016-12-13T01:04:21.778Z,1006.2
2016-12-13T01:04:42.320Z,1006.3
2016-12-13T01:05:02.859Z,1006.3
2016-12-13T01:05:23.418Z,1006.3
2016-12-13T01:05:43.951Z,1006.3
2016-12-13T01:06:04.471Z,1006.3
2016-12-13T01:06:24.990Z,1006.3
2016-12-13T01:06:45.526Z,1006.3
2016-12-13T01:07:06.061Z,1006.3
2016-12-13T01:07:26.627Z,1006.3
2016-12-13T01:07:47.178Z,1006.2
2016-12-13T01:08:07.699Z,1006.3
2016-12-13T01:08:28.240Z,1006.3
2016-12-13T01:08:48.778Z,1006.3
2016-12-13T01:09:09.298Z,1006.2
2016-12-13T01:09:29.888Z,1006.3
2016-12-13T01:09:50.433Z,1006.3
2016-12-13T01:10:10.969Z,1006.3
2016-12-13T01:10:31.507Z,1006.3
2016-12-13T01:10:52.098Z,1006.3
2016-12-13T01:11:12.623Z,1006.3
2016-12-13T01:11:33.156Z,1006.3
2016-12-13T01:11:53.701Z,1006.3
2016-12-13T01:12:14.255Z,1006.3
2016-12-13T01:12:34.786Z,1006.3
2016-12-13T01:12:55.302Z,1006.3
2016-12-13T01:13:15.833Z,1006.3
2016-12-13T01:13:36.359Z,1006.3
2016-12-13T01:13:56.886Z,1006.3
2016-12-13T01:14:17.416Z,1006.3
2016-12-13T01:14:37.958Z,1006.3
2016-12-13T01:14:58.474Z,1006.3
2016-12-13T01:15:19.006Z,1006.3
2016-12-13T01:15:39.532Z,1006.3
2016-12-13T01:16:00.095Z,1006.3
2016-12-13T01:16:20.614Z,1006.3
2016-12-13T01:16:41.135Z,1006.3
2016-12-13T01:17:01.671Z,1006.3
2016-12-13T01:17:22.199Z,1006.3
2016-12-13T01:17:42.735Z,1006.3
2016-12-13T01:18:03.265Z,1006.3
2016-12-13T01:18:23.798Z,1006.3
2016-12-13T01:18:44.334Z,1006.3
2016-12-13T01:19:04.917Z,1006.3
2016-12-13T01:19:25.468Z,1006.3
2016-12-13T01:19:46.009Z,1006.3
2016-12-13T01:20:06.564Z,1006.3
2016-12-13T01:20:27.089Z,1006.3
2016-12-13T01:20:47.637Z,1006.3
2016-12-13T01:21:08.186Z,1006.3
2016-12-13T01:21:28.727Z,1006.3
2016-12-13T01:21:49.261Z,1006.3
2016-12-13T01:22:09.787Z,1006.3
2016-12-13T01:22:30.307Z,1006.3
2016-12-13T01:22:50.858Z,1006.3
2016-12-13T01:23:11.393Z,1006.4
2016-12-13T01:23:31.922Z,1006.3
2016-12-13T01:23:52.460Z,1006.4
2016-12-13T01:24:13.015Z,1006.3
2016-12-13T01:24:33.545Z,1006.3
2016-12-13T01:24:54.078Z,1006.3
2016-12-13T01:25:14.622Z,1006.3
2016-12-13T01:25:35.145Z,1006.3
2016-12-13T01:25:55.699Z,1006.4
2016-12-13T01:26:16.234Z,1006.3
2016-12-13T01:26:36.755Z,1006.3
2016-12-13T01:26:57.284Z,1006.3
2016-12-13T01:27:17.843Z,1006.4
2016-12-13T01:27:38.375Z,1006.3
2016-12-13T01:27:58.953Z,1006.4
2016-12-13T01:28:19.497Z,1006.4
2016-12-13T01:28:40.034Z,1006.3
2016-12-13T01:29:00.554Z,1006.4
2016-12-13T01:29:21.090Z,1006.4
2016-12-13T01:29:41.619Z,1006.4
2016-12-13T01:30:02.183Z,1006.4
2016-12-13T01:30:22.712Z,1006.4
2016-12-13T01:30:43.263Z,1006.4
2016-12-13T01:31:03.813Z,1006.4
2016-12-13T01:31:24.353Z,1006.4
2016-12-13T01:31:44.928Z,1006.4
2016-12-13T01:32:05.452Z,1006.4
2016-12-13T01:32:25.977Z,1006.4
2016-12-13T01:32:46.508Z,1006.4
2016-12-13T01:33:07.040Z,1006.4
2016-12-13T01:33:27.571Z,1006.4
2016-12-13T01:33:48.127Z,1006.4
2016-12-13T01:34:08.657Z,1006.4
2016-12-13T01:34:29.192Z,1006.4
2016-12-13T01:34:49.738Z,1006.3
2016-12-13T01:35:10.282Z,1006.4
2016-12-13T01:35:30.807Z,1006.4
2016-12-13T01:35:51.327Z,1006.4
2016-12-13T01:36:11.871Z,1006.4
2016-12-13T01:36:32.436Z,1006.4
2016-12-13T01:36:52.961Z,1006.4
2016-12-13T01:37:13.525Z,1006.4
2016-12-13T01:37:34.057Z,1006.4
2016-12-13T01:37:54.604Z,1006.4
2016-12-13T01:38:15.164Z,1006.4
2016-12-13T01:38:35.705Z,1006.4
2016-12-13T01:38:56.231Z,1006.4
2016-12-13T01:39:16.753Z,1006.4
2016-12-13T01:39:37.272Z,1006.4
2016-12-13T01:39:57.831Z,1006.4
2016-12-13T01:40:18.363Z,1006.4
2016-12-13T01:40:38.905Z,1006.4
2016-12-13T01:40:59.433Z,1006.4
2016-12-13T01:41:20.005Z,1006.4
2016-12-13T01:41:40.544Z,1006.4
2016-12-13T01:42:01.079Z,1006.4
2016-12-13T01:42:21.616Z,1006.4
2016-12-13T01:42:42.177Z,1006.4
2016-12-13T01:43:02.739Z,1006.4
2016-12-13T01:43:23.258Z,1006.4
2016-12-13T01:43:43.794Z,1006.4
2016-12-13T01:44:04.311Z,1006.4
2016-12-13T01:44:24.881Z,1006.4
2016-12-13T01:44:45.439Z,1006.4
2016-12-13T01:45:05.967Z,1006.4
2016-12-13T01:45:26.491Z,1006.4
2016-12-13T01:45:47.028Z,1006.4
2016-12-13T01:46:07.567Z,1006.4
2016-12-13T01:46:28.088Z,1006.4
2016-12-13T01:46:48.603Z,1006.4
2016-12-13T01:47:09.138Z,1006.4
2016-12-13T01:47:29.671Z,1006.4
2016-12-13T01:47:50.199Z,1006.4
2016-12-13T01:48:10.736Z,1006.4
2016-12-13T01:48:31.269Z,1006.4
2016-12-13T01:48:51.836Z,1006.4
2016-12-13T01:49:12.354Z,1006.3
2016-12-13T01:49:32.922Z,1006.4
2016-12-13T01:49:53.467Z,1006.4
2016-12-13T01:50:13.985Z,1006.3
2016-12-13T01:50:34.517Z,1006.3
2016-12-13T01:50:55.056Z,1006.4
2016-12-13T01:51:15.597Z,1006.3
2016-12-13T01:51:36.110Z,1006.4
2016-12-13T01:51:56.671Z,1006.4
2016-12-13T01:52:17.196Z,1006.3
2016-12-13T01:52:37.728Z,1006.3
2016-12-13T01:52:58.247Z,1006.3
2016-12-13T01:53:18.779Z,1006.3
2016-12-13T01:53:39.309Z,1006.3
2016-12-13T01:53:59.864Z,1006.3
2016-12-13T01:54:20.413Z,1006.3
2016-12-13T01:54:40.973Z,1006.4
2016-12-13T01:55:01.521Z,1006.4
2016-12-13T01:55:22.069Z,1006.3
2016-12-13T01:55:42.594Z,1006.3
2016-12-13T01:56:03.119Z,1006.3
2016-12-13T01:56:23.645Z,1006.3
2016-12-13T01:56:44.196Z,1006.3
2016-12-13T01:57:04.710Z,1006.3
2016-12-13T01:57:25.249Z,1006.3
2016-12-13T01:57:45.806Z,1006.3
2016-12-13T01:58:06.338Z,1006.3
2016-12-13T01:58:26.864Z,1006.2
2016-12-13T01:58:47.381Z,1006.3
2016-12-13T01:59:07.904Z,1006.3
2016-12-13T01:59:28.431Z,1006.2
2016-12-13T01:59:48.957Z,1006.2
2016-12-13T02:00:09.495Z,1006.3
2016-12-13T02:00:30.022Z,1006.3
2016-12-13T02:00:50.550Z,1006.3
2016-12-13T02:01:11.090Z,1006.3
2016-12-13T02:01:31.645Z,1006.2
2016-12-13T02:01:52.182Z,1006.2
2016-12-13T02:02:12.717Z,1006.2
2016-12-13T02:02:33.247Z,1006.2
2016-12-13T02:02:53.779Z,1006.2
2016-12-13T02:03:14.325Z,1006.2
2016-12-13T02:03:34.858Z,1006.3
2016-12-13T02:03:55.429Z,1006.2
2016-12-13T02:04:15.957Z,1006.2
2016-12-13T02:04:36.490Z,1006.3
2016-12-13T02:04:57.018Z,1006.3
2016-12-13T02:05:17.589Z,1006.3
2016-12-13T02:05:38.122Z,1006.3
2016-12-13T02:05:58.662Z,1006.2
2016-12-13T02:06:19.185Z,1006.2
2016-12-13T02:06:39.725Z,1006.2
2016-12-13T02:07:00.240Z,1006.2
2016-12-13T02:07:20.793Z,1006.2
2016-12-13T02:07:41.343Z,1006.2
2016-12-13T02:08:01.862Z,1006.3
2016-12-13T02:08:22.391Z,1006.3
2016-12-13T02:08:42.964Z,1006.2
2016-12-13T02:09:03.496Z,1006.3
2016-12-13T02:09:24.056Z,1006.2
2016-12-13T02:09:44.598Z,1006.2
2016-12-13T02:10:05.129Z,1006.2
2016-12-13T02:10:25.657Z,1006.3
2016-12-13T02:10:46.172Z,1006.2
2016-12-13T02:11:06.740Z,1006.2
2016-12-13T02:11:27.278Z,1006.2
2016-12-13T02:11:47.807Z,1006.2
2016-12-13T02:12:08.350Z,1006.2
2016-12-13T02:12:28.905Z,1006.2
2016-12-13T02:12:49.458Z,1006.2
2016-12-13T02:13:10.000Z,1006.2
2016-12-13T02:13:30.555Z,1006.2
2016-12-13T02:13:51.117Z,1006.2
2016-12-13T02:14:11.639Z,1006.2
2016-12-13T02:14:32.178Z,1006.1
2016-12-13T02:14:52.738Z,1006.2
2016-12-13T02:15:13.271Z,1006.1
2016-12-13T02:15:33.815Z,1006.2
2016-12-13T02:15:54.325Z,1006.2
2016-12-13T02:16:14.855Z,1006.2
2016-12-13T02:16:35.383Z,1006.2
2016-12-13T02:16:55.928Z,1006.2
2016-12-13T02:17:16.461Z,1006.2
2016-12-13T02:17:36.996Z,1006.2
2016-12-13T02:17:57.525Z,1006.2
2016-12-13T02:18:18.063Z,1006.2
2016-12-13T02:18:38.599Z,1006.2
2016-12-13T02:18:59.115Z,1006.2
2016-12-13T02:19:19.633Z,1006.2
2016-12-13T02:19:40.168Z,1006.2
2016-12-13T02:20:00.703Z,1006.2
2016-12-13T02:20:21.233Z,1006.2
2016-12-13T02:20:44.562Z,1006.2
2016-12-13T02:21:05.087Z,1006.2
2016-12-13T02:21:25.636Z,1006.2
2016-12-13T02:21:46.159Z,1006.2
2016-12-13T02:22:06.713Z,1006.1
2016-12-13T02:22:27.253Z,1006.1
2016-12-13T02:22:47.831Z,1006.1
2016-12-13T02:23:08.391Z,1006.1
2016-12-13T02:23:28.927Z,1006.1
2016-12-13T02:23:49.458Z,1006.1
2016-12-13T02:24:09.978Z,1006.1
2016-12-13T02:24:30.507Z,1006.1
2016-12-13T02:24:51.032Z,1006.1
2016-12-13T02:25:11.573Z,1006.1
2016-12-13T02:25:32.112Z,1006.2
2016-12-13T02:25:52.639Z,1006.1
2016-12-13T02:26:13.162Z,1006.2
2016-12-13T02:26:33.711Z,1006.1
2016-12-13T02:26:54.259Z,1006.1
2016-12-13T02:27:14.824Z,1006.1
2016-12-13T02:27:35.348Z,1006.1
2016-12-13T02:27:55.889Z,1006.1
2016-12-13T02:28:16.423Z,1006.1
2016-12-13T02:28:36.962Z,1006.1
2016-12-13T02:28:57.507Z,1006.1
2016-12-13T02:29:18.056Z,1006.1
2016-12-13T02:29:38.627Z,1006.1
2016-12-13T02:29:59.162Z,1006.1
2016-12-13T02:30:19.687Z,1006
2016-12-13T02:30:40.254Z,1006.1
2016-12-13T02:31:00.793Z,1006.1
2016-12-13T02:31:21.308Z,1006
2016-12-13T02:31:41.832Z,1006
2016-12-13T02:32:02.373Z,1006
2016-12-13T02:32:22.906Z,1006
2016-12-13T02:32:43.474Z,1006
2016-12-13T02:33:04.009Z,1006
2016-12-13T02:33:24.539Z,1006
2016-12-13T02:33:45.076Z,1006
2016-12-13T02:34:05.623Z,1006
2016-12-13T02:34:26.157Z,1006
2016-12-13T02:34:46.690Z,1006
2016-12-13T02:35:07.253Z,1006
2016-12-13T02:35:27.797Z,1006.1
2016-12-13T02:35:48.332Z,1006.1
2016-12-13T02:36:08.880Z,1006.1
2016-12-13T02:36:29.407Z,1006
2016-12-13T02:36:49.938Z,1006
2016-12-13T02:37:10.476Z,1006
2016-12-13T02:37:31.044Z,1006
2016-12-13T02:37:51.573Z,1006
2016-12-13T02:38:12.123Z,1006
2016-12-13T02:38:32.660Z,1006
2016-12-13T02:38:53.202Z,1005.9
2016-12-13T02:39:13.723Z,1005.9
2016-12-13T02:39:34.252Z,1005.9
2016-12-13T02:39:54.789Z,1005.9
2016-12-13T02:40:15.324Z,1005.9
2016-12-13T02:40:35.854Z,1005.9
2016-12-13T02:40:56.388Z,1005.9
2016-12-13T02:41:16.928Z,1006
2016-12-13T02:41:37.482Z,1005.9
2016-12-13T02:41:58.031Z,1006
2016-12-13T02:42:18.584Z,1006
2016-12-13T02:42:39.126Z,1005.9
2016-12-13T02:42:59.660Z,1005.9
2016-12-13T02:43:20.215Z,1005.9
2016-12-13T02:43:40.767Z,1005.9
2016-12-13T02:44:01.287Z,1005.9
2016-12-13T02:44:21.839Z,1005.9
2016-12-13T02:44:42.377Z,1005.8
2016-12-13T02:45:02.911Z,1005.9
2016-12-13T02:45:23.462Z,1005.8
2016-12-13T02:45:44.010Z,1005.9
2016-12-13T02:46:04.538Z,1005.8
2016-12-13T02:46:25.099Z,1005.8
2016-12-13T02:46:45.644Z,1005.8
2016-12-13T02:47:06.176Z,1005.9
2016-12-13T02:47:26.713Z,1005.8
2016-12-13T02:47:47.265Z,1005.9
2016-12-13T02:48:07.806Z,1005.9
2016-12-13T02:48:28.343Z,1005.9
2016-12-13T02:48:49.475Z,1005.9
2016-12-13T02:49:10.244Z,1005.9
2016-12-13T02:49:30.776Z,1005.9
2016-12-13T02:49:51.318Z,1005.9
2016-12-13T02:50:11.906Z,1005.9
2016-12-13T02:50:32.431Z,1005.9
2016-12-13T02:50:52.978Z,1005.9
2016-12-13T02:51:13.521Z,1005.9
2016-12-13T02:51:34.052Z,1005.9
2016-12-13T02:51:54.574Z,1006
2016-12-13T02:52:15.088Z,1006
2016-12-13T02:52:35.679Z,1005.9
2016-12-13T02:52:56.270Z,1005.9
2016-12-13T02:53:16.798Z,1006
2016-12-13T02:53:37.354Z,1005.9
2016-12-13T02:53:57.899Z,1005.9
2016-12-13T02:54:18.429Z,1005.9
2016-12-13T02:54:38.975Z,1005.9
2016-12-13T02:54:59.545Z,1005.9
2016-12-13T02:55:20.073Z,1005.9
2016-12-13T02:55:40.610Z,1005.9
2016-12-13T02:56:01.154Z,1005.9
2016-12-13T02:56:21.683Z,1005.9
2016-12-13T02:56:42.238Z,1005.9
2016-12-13T02:57:02.765Z,1005.9
2016-12-13T02:57:23.291Z,1005.9
2016-12-13T02:57:43.843Z,1005.9
2016-12-13T02:58:04.379Z,1006
2016-12-13T02:58:24.939Z,1006
2016-12-13T02:58:45.473Z,1005.9
2016-12-13T02:59:06.003Z,1005.9
2016-12-13T02:59:26.559Z,1005.9
2016-12-13T02:59:47.105Z,1005.9
2016-12-13T03:00:07.671Z,1005.9
2016-12-13T03:00:28.240Z,1005.9
2016-12-13T03:00:48.808Z,1005.9
2016-12-13T03:01:09.332Z,1005.9
2016-12-13T03:01:29.874Z,1005.8
2016-12-13T03:01:50.466Z,1005.8
2016-12-13T03:02:11.010Z,1005.8
2016-12-13T03:02:31.549Z,1005.8
2016-12-13T03:02:52.097Z,1005.8
2016-12-13T03:03:12.635Z,1005.8
2016-12-13T03:03:33.182Z,1005.7
2016-12-13T03:03:53.705Z,1005.7
2016-12-13T03:04:14.261Z,1005.6
2016-12-13T03:04:34.827Z,1005.7
2016-12-13T03:04:55.384Z,1005.7
2016-12-13T03:05:15.927Z,1005.7
2016-12-13T03:05:36.442Z,1005.7
2016-12-13T03:05:57.013Z,1005.7
2016-12-13T03:06:17.569Z,1005.7
2016-12-13T03:06:38.119Z,1005.7
2016-12-13T03:06:58.643Z,1005.7
2016-12-13T03:07:19.185Z,1005.7
2016-12-13T03:07:39.723Z,1005.7
2016-12-13T03:08:00.228Z,1005.7
2016-12-13T03:08:20.744Z,1005.7
2016-12-13T03:08:41.275Z,1005.7
2016-12-13T03:09:01.807Z,1005.7
2016-12-13T03:09:22.336Z,1005.7
2016-12-13T03:09:42.865Z,1005.7
2016-12-13T03:10:03.410Z,1005.7
2016-12-13T03:10:23.961Z,1005.7
2016-12-13T03:10:44.499Z,1005.7
2016-12-13T03:11:05.026Z,1005.7
2016-12-13T03:11:25.605Z,1005.7
2016-12-13T03:11:46.138Z,1005.7
2016-12-13T03:12:06.692Z,1005.7
2016-12-13T03:12:27.237Z,1005.8
2016-12-13T03:12:47.779Z,1005.8
2016-12-13T03:13:08.315Z,1005.7
2016-12-13T03:13:28.874Z,1005.7
2016-12-13T03:13:49.432Z,1005.7
2016-12-13T03:14:09.980Z,1005.7
2016-12-13T03:14:30.522Z,1005.7
2016-12-13T03:14:51.050Z,1005.6
2016-12-13T03:15:11.578Z,1005.7
2016-12-13T03:15:32.112Z,1005.6
2016-12-13T03:15:52.652Z,1005.6
2016-12-13T03:16:13.186Z,1005.6
2016-12-13T03:16:33.721Z,1005.6
2016-12-13T03:16:54.245Z,1005.6
2016-12-13T03:17:14.765Z,1005.6
2016-12-13T03:17:35.292Z,1005.6
2016-12-13T03:17:55.863Z,1005.7
2016-12-13T03:18:16.394Z,1005.7
2016-12-13T03:18:36.932Z,1005.6
2016-12-13T03:18:57.457Z,1005.7
2016-12-13T03:19:17.974Z,1005.7
2016-12-13T03:19:38.514Z,1005.7
2016-12-13T03:19:59.045Z,1005.7
2016-12-13T03:20:19.585Z,1005.7
2016-12-13T03:20:40.112Z,1005.7
2016-12-13T03:21:00.648Z,1005.7
2016-12-13T03:21:21.168Z,1005.7
2016-12-13T03:21:41.723Z,1005.7
2016-12-13T03:22:02.282Z,1005.7
2016-12-13T03:22:22.837Z,1005.6
2016-12-13T03:22:43.376Z,1005.6
2016-12-13T03:23:03.898Z,1005.7
2016-12-13T03:23:24.414Z,1005.6
2016-12-13T03:23:44.987Z,1005.7
2016-12-13T03:24:05.516Z,1005.6
2016-12-13T03:24:26.049Z,1005.6
2016-12-13T03:24:46.588Z,1005.6
2016-12-13T03:25:07.132Z,1005.6
2016-12-13T03:25:27.708Z,1005.6
2016-12-13T03:25:48.246Z,1005.6
2016-12-13T03:26:08.788Z,1005.6
2016-12-13T03:26:29.335Z,1005.6
2016-12-13T03:26:49.879Z,1005.6
2016-12-13T03:27:10.424Z,1005.7
2016-12-13T03:27:30.946Z,1005.7
2016-12-13T03:27:51.512Z,1005.7
2016-12-13T03:28:12.050Z,1005.7
2016-12-13T03:28:32.612Z,1005.7
2016-12-13T03:28:53.159Z,1005.7
2016-12-13T03:29:13.699Z,1005.7
2016-12-13T03:29:34.231Z,1005.7
2016-12-13T03:29:54.755Z,1005.7
2016-12-13T03:30:15.296Z,1005.7
2016-12-13T03:30:35.841Z,1005.7
2016-12-13T03:30:56.381Z,1005.6
2016-12-13T03:31:16.919Z,1005.7
2016-12-13T03:31:37.449Z,1005.6
2016-12-13T03:31:57.995Z,1005.6
2016-12-13T03:32:18.517Z,1005.6
2016-12-13T03:32:39.056Z,1005.6
2016-12-13T03:32:59.599Z,1005.6
2016-12-13T03:33:20.108Z,1005.6
2016-12-13T03:33:40.635Z,1005.6
2016-12-13T03:34:01.162Z,1005.6
2016-12-13T03:34:21.713Z,1005.6
2016-12-13T03:34:42.233Z,1005.6
2016-12-13T03:35:02.782Z,1005.6
2016-12-13T03:35:23.317Z,1005.6
2016-12-13T03:35:43.851Z,1005.6
2016-12-13T03:36:04.371Z,1005.6
2016-12-13T03:36:24.923Z,1005.6
2016-12-13T03:36:45.455Z,1005.7
2016-12-13T03:37:05.989Z,1005.7
2016-12-13T03:37:26.513Z,1005.6
2016-12-13T03:37:47.044Z,1005.7
2016-12-13T03:38:07.590Z,1005.7
2016-12-13T03:38:28.119Z,1005.7
2016-12-13T03:38:48.661Z,1005.7
2016-12-13T03:39:09.194Z,1005.6
2016-12-13T03:39:29.715Z,1005.7
2016-12-13T03:39:50.264Z,1005.6
2016-12-13T03:40:10.822Z,1005.6
2016-12-13T03:40:31.363Z,1005.7
2016-12-13T03:40:51.890Z,1005.6
2016-12-13T03:41:12.434Z,1005.6
2016-12-13T03:41:32.988Z,1005.7
2016-12-13T03:41:53.564Z,1005.7
2016-12-13T03:42:14.120Z,1005.7
2016-12-13T03:42:34.670Z,1005.6
2016-12-13T03:42:55.202Z,1005.7
2016-12-13T03:43:15.730Z,1005.7
2016-12-13T03:43:36.258Z,1005.7
2016-12-13T03:43:56.792Z,1005.6
2016-12-13T03:44:17.339Z,1005.7
2016-12-13T03:44:37.875Z,1005.6
2016-12-13T03:44:58.415Z,1005.7
2016-12-13T03:45:18.962Z,1005.7
2016-12-13T03:45:39.496Z,1005.7
2016-12-13T03:46:00.039Z,1005.7
2016-12-13T03:46:20.608Z,1005.7
2016-12-13T03:46:41.144Z,1005.7
2016-12-13T03:47:01.677Z,1005.7
2016-12-13T03:47:22.212Z,1005.7
2016-12-13T03:47:42.739Z,1005.7
2016-12-13T03:48:03.291Z,1005.6
2016-12-13T03:48:23.830Z,1005.7
2016-12-13T03:48:44.374Z,1005.7
2016-12-13T03:49:04.980Z,1005.7
2016-12-13T03:49:25.515Z,1005.7
2016-12-13T03:49:46.033Z,1005.6
2016-12-13T03:50:06.579Z,1005.6
2016-12-13T03:50:27.109Z,1005.6
2016-12-13T03:50:47.634Z,1005.6
2016-12-13T03:51:08.173Z,1005.6
2016-12-13T03:51:28.716Z,1005.5
2016-12-13T03:51:49.240Z,1005.5
2016-12-13T03:52:09.791Z,1005.6
2016-12-13T03:52:30.319Z,1005.6
2016-12-13T03:52:50.858Z,1005.6
2016-12-13T03:53:11.383Z,1005.7
2016-12-13T03:53:31.891Z,1005.6
2016-12-13T03:53:52.423Z,1005.6
2016-12-13T03:54:12.985Z,1005.6
2016-12-13T03:54:33.523Z,1005.6
2016-12-13T03:54:54.062Z,1005.7
2016-12-13T03:55:14.592Z,1005.6
2016-12-13T03:55:35.136Z,1005.6
2016-12-13T03:55:55.708Z,1005.6
2016-12-13T03:56:16.253Z,1005.6
2016-12-13T03:56:36.814Z,1005.6
2016-12-13T03:56:57.344Z,1005.6
2016-12-13T03:57:17.873Z,1005.6
2016-12-13T03:57:38.414Z,1005.6
2016-12-13T03:57:58.946Z,1005.6
2016-12-13T03:58:19.472Z,1005.6
2016-12-13T03:58:40.031Z,1005.7
2016-12-13T03:59:00.566Z,1005.7
2016-12-13T03:59:21.093Z,1005.7
2016-12-13T03:59:41.625Z,1005.7
2016-12-13T04:00:02.165Z,1005.7
2016-12-13T04:00:22.706Z,1005.7
2016-12-13T04:00:43.229Z,1005.7
2016-12-13T04:01:03.753Z,1005.7
2016-12-13T04:01:24.294Z,1005.7
2016-12-13T04:01:44.820Z,1005.7
2016-12-13T04:02:05.346Z,1005.7
2016-12-13T04:02:25.870Z,1005.7
2016-12-13T04:02:46.414Z,1005.7
2016-12-13T04:03:06.937Z,1005.7
2016-12-13T04:03:27.503Z,1005.7
2016-12-13T04:03:48.080Z,1005.7
2016-12-13T04:04:08.616Z,1005.7
2016-12-13T04:04:29.144Z,1005.7
2016-12-13T04:04:49.699Z,1005.7
2016-12-13T04:05:10.238Z,1005.7
2016-12-13T04:05:30.773Z,1005.7
2016-12-13T04:05:51.321Z,1005.7
2016-12-13T04:06:11.856Z,1005.8
2016-12-13T04:06:32.395Z,1005.7
2016-12-13T04:06:52.944Z,1005.7
2016-12-13T04:07:13.467Z,1005.6
2016-12-13T04:07:33.993Z,1005.7
2016-12-13T04:07:54.533Z,1005.7
2016-12-13T04:08:15.065Z,1005.6
2016-12-13T04:08:35.624Z,1005.6
2016-12-13T04:08:56.146Z,1005.6
2016-12-13T04:09:16.703Z,1005.6
2016-12-13T04:09:37.233Z,1005.6
2016-12-13T04:09:57.771Z,1005.6
2016-12-13T04:10:18.303Z,1005.6
2016-12-13T04:10:38.852Z,1005.6
2016-12-13T04:10:59.368Z,1005.6
2016-12-13T04:11:19.914Z,1005.7
2016-12-13T04:11:40.444Z,1005.6
2016-12-13T04:12:01.003Z,1005.6
2016-12-13T04:12:21.547Z,1005.6
2016-12-13T04:12:42.078Z,1005.6
2016-12-13T04:13:02.595Z,1005.6
2016-12-13T04:13:23.124Z,1005.6
2016-12-13T04:13:43.653Z,1005.6
2016-12-13T04:14:04.183Z,1005.6
2016-12-13T04:14:24.727Z,1005.6
2016-12-13T04:14:45.291Z,1005.6
2016-12-13T04:15:05.850Z,1005.6
2016-12-13T04:15:26.372Z,1005.6
2016-12-13T04:15:46.922Z,1005.6
2016-12-13T04:16:07.445Z,1005.6
2016-12-13T04:16:28.024Z,1005.6
2016-12-13T04:16:48.569Z,1005.6
2016-12-13T04:17:09.111Z,1005.6